sensor_id;sensor_type;location;lat;lon;timestamp;P1;durP1;ratioP1;P2;durP2;ratioP2
7843;SDS011;3967;48.702;9.326;2024-03-25T00:00:47;2.97;;;1.70;;
7843;SDS011;3967;48.702;9.326;2024-03-25T00:03:13;4.53;;;1.97;;
7843;SDS011;3967;48.702;9.326;2024-03-25T00:05:39;2.47;;;1.60;;
7843;SDS011;3967;48.702;9.326;2024-03-25T00:08:04;3.70;;;1.70;;
7843;SDS011;3967;48.702;9.326;2024-03-25T00:10:30;3.97;;;1.40;;
7843;SDS011;3967;48.702;9.326;2024-03-25T00:12:56;4.97;;;1.57;;
7843;SDS011;3967;48.702;9.326;2024-03-25T00:15:22;2.80;;;1.40;;
7843;SDS011;3967;48.702;9.326;2024-03-25T00:17:49;3.03;;;1.60;;
7843;SDS011;3967;48.702;9.326;2024-03-25T00:20:15;3.97;;;1.80;;
7843;SDS011;3967;48.702;9.326;2024-03-25T00:22:41;4.20;;;1.87;;
7843;SDS011;3967;48.702;9.326;2024-03-25T00:25:07;5.20;;;1.80;;
7843;SDS011;3967;48.702;9.326;2024-03-25T00:27:34;6.00;;;1.70;;
7843;SDS011;3967;48.702;9.326;2024-03-25T00:30:00;3.93;;;1.80;;
7843;SDS011;3967;48.702;9.326;2024-03-25T00:32:26;3.73;;;1.67;;
7843;SDS011;3967;48.702;9.326;2024-03-25T00:34:51;3.43;;;1.90;;
7843;SDS011;3967;48.702;9.326;2024-03-25T00:37:17;2.33;;;1.60;;
7843;SDS011;3967;48.702;9.326;2024-03-25T00:39:44;2.23;;;1.80;;
7843;SDS011;3967;48.702;9.326;2024-03-25T00:42:10;2.67;;;1.50;;
7843;SDS011;3967;48.702;9.326;2024-03-25T00:44:36;5.00;;;1.83;;
7843;SDS011;3967;48.702;9.326;2024-03-25T00:47:02;3.43;;;1.53;;
7843;SDS011;3967;48.702;9.326;2024-03-25T00:49:28;3.87;;;1.40;;
7843;SDS011;3967;48.702;9.326;2024-03-25T00:51:53;2.27;;;1.50;;
7843;SDS011;3967;48.702;9.326;2024-03-25T00:54:19;4.17;;;1.40;;
7843;SDS011;3967;48.702;9.326;2024-03-25T00:56:45;2.60;;;1.60;;
7843;SDS011;3967;48.702;9.326;2024-03-25T00:59:11;3.80;;;1.70;;
7843;SDS011;3967;48.702;9.326;2024-03-25T01:01:37;3.37;;;1.50;;
7843;SDS011;3967;48.702;9.326;2024-03-25T01:04:03;2.07;;;1.63;;
7843;SDS011;3967;48.702;9.326;2024-03-25T01:06:29;3.47;;;1.40;;
7843;SDS011;3967;48.702;9.326;2024-03-25T01:08:55;2.67;;;2.30;;
7843;SDS011;3967;48.702;9.326;2024-03-25T01:11:21;4.20;;;1.90;;
7843;SDS011;3967;48.702;9.326;2024-03-25T01:13:47;2.77;;;1.57;;
7843;SDS011;3967;48.702;9.326;2024-03-25T01:16:13;3.40;;;1.87;;
7843;SDS011;3967;48.702;9.326;2024-03-25T01:18:39;3.90;;;1.77;;
7843;SDS011;3967;48.702;9.326;2024-03-25T01:21:05;2.73;;;1.67;;
7843;SDS011;3967;48.702;9.326;2024-03-25T01:23:31;1.77;;;1.53;;
7843;SDS011;3967;48.702;9.326;2024-03-25T01:25:57;3.77;;;1.60;;
7843;SDS011;3967;48.702;9.326;2024-03-25T01:28:23;4.07;;;1.60;;
7843;SDS011;3967;48.702;9.326;2024-03-25T01:30:49;2.33;;;1.77;;
7843;SDS011;3967;48.702;9.326;2024-03-25T01:33:14;2.10;;;1.70;;
7843;SDS011;3967;48.702;9.326;2024-03-25T01:35:40;3.50;;;1.90;;
7843;SDS011;3967;48.702;9.326;2024-03-25T01:38:06;3.53;;;1.80;;
7843;SDS011;3967;48.702;9.326;2024-03-25T01:40:32;2.07;;;1.53;;
7843;SDS011;3967;48.702;9.326;2024-03-25T01:42:59;4.77;;;2.13;;
7843;SDS011;3967;48.702;9.326;2024-03-25T01:45:31;3.03;;;1.70;;
7843;SDS011;3967;48.702;9.326;2024-03-25T01:48:07;4.63;;;1.80;;
7843;SDS011;3967;48.702;9.326;2024-03-25T01:50:39;3.87;;;1.70;;
7843;SDS011;3967;48.702;9.326;2024-03-25T01:53:08;4.87;;;1.73;;
7843;SDS011;3967;48.702;9.326;2024-03-25T01:55:36;1.90;;;1.70;;
7843;SDS011;3967;48.702;9.326;2024-03-25T01:58:03;3.27;;;1.93;;
7843;SDS011;3967;48.702;9.326;2024-03-25T02:00:30;2.37;;;1.60;;
7843;SDS011;3967;48.702;9.326;2024-03-25T02:02:57;3.63;;;2.23;;
7843;SDS011;3967;48.702;9.326;2024-03-25T02:05:23;3.27;;;2.23;;
7843;SDS011;3967;48.702;9.326;2024-03-25T02:07:49;3.83;;;1.80;;
7843;SDS011;3967;48.702;9.326;2024-03-25T02:10:16;3.73;;;2.10;;
7843;SDS011;3967;48.702;9.326;2024-03-25T02:12:42;4.40;;;1.73;;
7843;SDS011;3967;48.702;9.326;2024-03-25T02:15:08;4.47;;;1.93;;
7843;SDS011;3967;48.702;9.326;2024-03-25T02:17:35;5.17;;;2.23;;
7843;SDS011;3967;48.702;9.326;2024-03-25T02:20:02;5.50;;;2.30;;
7843;SDS011;3967;48.702;9.326;2024-03-25T02:22:30;4.97;;;2.13;;
7843;SDS011;3967;48.702;9.326;2024-03-25T02:25:06;4.37;;;1.80;;
7843;SDS011;3967;48.702;9.326;2024-03-25T02:27:36;5.53;;;2.30;;
7843;SDS011;3967;48.702;9.326;2024-03-25T02:30:04;4.30;;;2.37;;
7843;SDS011;3967;48.702;9.326;2024-03-25T02:32:33;6.13;;;1.90;;
7843;SDS011;3967;48.702;9.326;2024-03-25T02:35:00;2.43;;;2.23;;
7843;SDS011;3967;48.702;9.326;2024-03-25T02:37:29;2.53;;;1.90;;
7843;SDS011;3967;48.702;9.326;2024-03-25T02:39:57;3.53;;;2.47;;
7843;SDS011;3967;48.702;9.326;2024-03-25T02:42:28;2.67;;;1.80;;
7843;SDS011;3967;48.702;9.326;2024-03-25T02:44:54;3.20;;;2.03;;
7843;SDS011;3967;48.702;9.326;2024-03-25T02:47:20;3.70;;;2.40;;
7843;SDS011;3967;48.702;9.326;2024-03-25T02:49:47;2.30;;;1.97;;
7843;SDS011;3967;48.702;9.326;2024-03-25T02:52:13;5.37;;;2.20;;
7843;SDS011;3967;48.702;9.326;2024-03-25T02:54:38;5.47;;;2.60;;
7843;SDS011;3967;48.702;9.326;2024-03-25T02:57:04;3.77;;;2.27;;
7843;SDS011;3967;48.702;9.326;2024-03-25T02:59:30;3.73;;;2.30;;
7843;SDS011;3967;48.702;9.326;2024-03-25T03:01:56;4.00;;;2.13;;
7843;SDS011;3967;48.702;9.326;2024-03-25T03:04:22;2.87;;;1.90;;
7843;SDS011;3967;48.702;9.326;2024-03-25T03:06:47;6.30;;;2.13;;
7843;SDS011;3967;48.702;9.326;2024-03-25T03:09:13;7.80;;;2.60;;
7843;SDS011;3967;48.702;9.326;2024-03-25T03:11:39;6.20;;;2.00;;
7843;SDS011;3967;48.702;9.326;2024-03-25T03:14:05;4.47;;;2.03;;
7843;SDS011;3967;48.702;9.326;2024-03-25T03:16:31;2.60;;;1.73;;
7843;SDS011;3967;48.702;9.326;2024-03-25T03:18:57;4.53;;;2.10;;
7843;SDS011;3967;48.702;9.326;2024-03-25T03:21:22;5.30;;;2.03;;
7843;SDS011;3967;48.702;9.326;2024-03-25T03:23:48;3.83;;;2.17;;
7843;SDS011;3967;48.702;9.326;2024-03-25T03:26:14;3.27;;;2.00;;
7843;SDS011;3967;48.702;9.326;2024-03-25T03:28:40;3.90;;;1.90;;
7843;SDS011;3967;48.702;9.326;2024-03-25T03:31:06;3.73;;;1.93;;
7843;SDS011;3967;48.702;9.326;2024-03-25T03:33:32;2.30;;;1.90;;
7843;SDS011;3967;48.702;9.326;2024-03-25T03:35:58;5.40;;;2.37;;
7843;SDS011;3967;48.702;9.326;2024-03-25T03:38:23;5.23;;;2.10;;
7843;SDS011;3967;48.702;9.326;2024-03-25T03:40:59;3.10;;;2.00;;
7843;SDS011;3967;48.702;9.326;2024-03-25T03:43:26;6.50;;;2.03;;
7843;SDS011;3967;48.702;9.326;2024-03-25T03:45:52;3.63;;;1.70;;
7843;SDS011;3967;48.702;9.326;2024-03-25T03:48:17;4.00;;;2.27;;
7843;SDS011;3967;48.702;9.326;2024-03-25T03:50:44;3.40;;;1.93;;
7843;SDS011;3967;48.702;9.326;2024-03-25T03:53:09;3.50;;;2.00;;
7843;SDS011;3967;48.702;9.326;2024-03-25T03:55:35;4.83;;;2.20;;
7843;SDS011;3967;48.702;9.326;2024-03-25T03:58:01;5.63;;;2.20;;
7843;SDS011;3967;48.702;9.326;2024-03-25T04:00:28;2.20;;;2.00;;
7843;SDS011;3967;48.702;9.326;2024-03-25T04:02:53;3.60;;;1.83;;
7843;SDS011;3967;48.702;9.326;2024-03-25T04:05:19;3.90;;;2.03;;
7843;SDS011;3967;48.702;9.326;2024-03-25T04:07:45;2.70;;;2.17;;
7843;SDS011;3967;48.702;9.326;2024-03-25T04:10:11;2.67;;;1.60;;
7843;SDS011;3967;48.702;9.326;2024-03-25T04:12:37;3.17;;;2.00;;
7843;SDS011;3967;48.702;9.326;2024-03-25T04:15:04;3.00;;;1.70;;
7843;SDS011;3967;48.702;9.326;2024-03-25T04:17:30;3.80;;;1.93;;
7843;SDS011;3967;48.702;9.326;2024-03-25T04:19:58;2.70;;;1.83;;
7843;SDS011;3967;48.702;9.326;2024-03-25T04:22:31;3.67;;;1.60;;
7843;SDS011;3967;48.702;9.326;2024-03-25T04:24:57;3.30;;;1.80;;
7843;SDS011;3967;48.702;9.326;2024-03-25T04:27:22;2.70;;;1.90;;
7843;SDS011;3967;48.702;9.326;2024-03-25T04:29:49;2.87;;;1.70;;
7843;SDS011;3967;48.702;9.326;2024-03-25T04:32:15;3.37;;;1.40;;
7843;SDS011;3967;48.702;9.326;2024-03-25T04:34:41;5.03;;;1.97;;
7843;SDS011;3967;48.702;9.326;2024-03-25T04:37:07;3.10;;;2.00;;
7843;SDS011;3967;48.702;9.326;2024-03-25T04:39:35;3.23;;;2.30;;
7843;SDS011;3967;48.702;9.326;2024-03-25T04:42:00;5.20;;;1.63;;
7843;SDS011;3967;48.702;9.326;2024-03-25T04:44:28;3.53;;;2.03;;
7843;SDS011;3967;48.702;9.326;2024-03-25T04:46:54;2.80;;;1.83;;
7843;SDS011;3967;48.702;9.326;2024-03-25T04:49:20;4.53;;;2.10;;
7843;SDS011;3967;48.702;9.326;2024-03-25T04:51:45;4.13;;;2.30;;
7843;SDS011;3967;48.702;9.326;2024-03-25T04:54:11;4.57;;;2.10;;
7843;SDS011;3967;48.702;9.326;2024-03-25T04:56:37;4.40;;;2.37;;
7843;SDS011;3967;48.702;9.326;2024-03-25T04:59:03;3.70;;;1.90;;
7843;SDS011;3967;48.702;9.326;2024-03-25T05:01:28;3.93;;;2.10;;
7843;SDS011;3967;48.702;9.326;2024-03-25T05:03:54;6.73;;;2.10;;
7843;SDS011;3967;48.702;9.326;2024-03-25T05:06:20;4.30;;;2.00;;
7843;SDS011;3967;48.702;9.326;2024-03-25T05:08:46;2.47;;;1.70;;
7843;SDS011;3967;48.702;9.326;2024-03-25T05:11:11;3.20;;;2.13;;
7843;SDS011;3967;48.702;9.326;2024-03-25T05:13:37;5.33;;;2.10;;
7843;SDS011;3967;48.702;9.326;2024-03-25T05:16:03;3.20;;;1.80;;
7843;SDS011;3967;48.702;9.326;2024-03-25T05:18:29;4.77;;;2.23;;
7843;SDS011;3967;48.702;9.326;2024-03-25T05:20:55;6.80;;;2.67;;
7843;SDS011;3967;48.702;9.326;2024-03-25T05:23:20;2.43;;;1.80;;
7843;SDS011;3967;48.702;9.326;2024-03-25T05:25:46;3.90;;;2.07;;
7843;SDS011;3967;48.702;9.326;2024-03-25T05:28:12;2.27;;;1.93;;
7843;SDS011;3967;48.702;9.326;2024-03-25T05:30:38;3.23;;;1.63;;
7843;SDS011;3967;48.702;9.326;2024-03-25T05:33:04;5.73;;;2.33;;
7843;SDS011;3967;48.702;9.326;2024-03-25T05:35:30;2.77;;;1.90;;
7843;SDS011;3967;48.702;9.326;2024-03-25T05:37:59;2.60;;;1.90;;
7843;SDS011;3967;48.702;9.326;2024-03-25T05:40:24;5.80;;;2.10;;
7843;SDS011;3967;48.702;9.326;2024-03-25T05:42:50;3.17;;;1.80;;
7843;SDS011;3967;48.702;9.326;2024-03-25T05:45:16;3.20;;;1.90;;
7843;SDS011;3967;48.702;9.326;2024-03-25T05:47:42;3.50;;;2.17;;
7843;SDS011;3967;48.702;9.326;2024-03-25T05:50:08;3.07;;;2.00;;
7843;SDS011;3967;48.702;9.326;2024-03-25T05:52:33;2.33;;;2.13;;
7843;SDS011;3967;48.702;9.326;2024-03-25T05:55:00;3.83;;;2.20;;
7843;SDS011;3967;48.702;9.326;2024-03-25T05:57:26;4.03;;;2.50;;
7843;SDS011;3967;48.702;9.326;2024-03-25T05:59:52;4.53;;;2.40;;
7843;SDS011;3967;48.702;9.326;2024-03-25T06:02:18;4.47;;;2.37;;
7843;SDS011;3967;48.702;9.326;2024-03-25T06:04:44;3.83;;;2.17;;
7843;SDS011;3967;48.702;9.326;2024-03-25T06:07:09;5.07;;;2.37;;
7843;SDS011;3967;48.702;9.326;2024-03-25T06:09:35;3.23;;;2.50;;
7843;SDS011;3967;48.702;9.326;2024-03-25T06:12:01;4.83;;;2.60;;
7843;SDS011;3967;48.702;9.326;2024-03-25T06:14:28;5.07;;;2.50;;
7843;SDS011;3967;48.702;9.326;2024-03-25T06:16:53;4.30;;;2.70;;
7843;SDS011;3967;48.702;9.326;2024-03-25T06:19:19;6.33;;;2.60;;
7843;SDS011;3967;48.702;9.326;2024-03-25T06:21:45;3.17;;;2.30;;
7843;SDS011;3967;48.702;9.326;2024-03-25T06:24:11;3.97;;;2.57;;
7843;SDS011;3967;48.702;9.326;2024-03-25T06:26:37;6.90;;;2.63;;
7843;SDS011;3967;48.702;9.326;2024-03-25T06:29:02;5.90;;;2.47;;
7843;SDS011;3967;48.702;9.326;2024-03-25T06:31:28;2.40;;;2.20;;
7843;SDS011;3967;48.702;9.326;2024-03-25T06:34:12;4.93;;;2.33;;
7843;SDS011;3967;48.702;9.326;2024-03-25T06:36:50;4.07;;;2.30;;
7843;SDS011;3967;48.702;9.326;2024-03-25T06:39:16;5.13;;;2.70;;
7843;SDS011;3967;48.702;9.326;2024-03-25T06:41:43;4.73;;;2.40;;
7843;SDS011;3967;48.702;9.326;2024-03-25T06:44:09;3.93;;;2.30;;
7843;SDS011;3967;48.702;9.326;2024-03-25T06:46:35;3.30;;;2.07;;
7843;SDS011;3967;48.702;9.326;2024-03-25T06:49:01;3.77;;;2.10;;
7843;SDS011;3967;48.702;9.326;2024-03-25T06:51:26;5.83;;;2.13;;
7843;SDS011;3967;48.702;9.326;2024-03-25T06:53:52;3.67;;;2.07;;
7843;SDS011;3967;48.702;9.326;2024-03-25T06:56:18;3.20;;;2.20;;
7843;SDS011;3967;48.702;9.326;2024-03-25T06:58:44;5.50;;;2.07;;
7843;SDS011;3967;48.702;9.326;2024-03-25T07:01:10;4.33;;;2.43;;
7843;SDS011;3967;48.702;9.326;2024-03-25T07:03:37;6.27;;;2.33;;
7843;SDS011;3967;48.702;9.326;2024-03-25T07:06:03;4.83;;;2.20;;
7843;SDS011;3967;48.702;9.326;2024-03-25T07:08:30;3.13;;;2.40;;
7843;SDS011;3967;48.702;9.326;2024-03-25T07:10:57;2.93;;;2.20;;
7843;SDS011;3967;48.702;9.326;2024-03-25T07:13:23;4.90;;;2.60;;
7843;SDS011;3967;48.702;9.326;2024-03-25T07:15:49;2.53;;;2.20;;
7843;SDS011;3967;48.702;9.326;2024-03-25T07:18:15;3.80;;;2.53;;
7843;SDS011;3967;48.702;9.326;2024-03-25T07:20:42;6.67;;;2.83;;
7843;SDS011;3967;48.702;9.326;2024-03-25T07:23:08;4.40;;;2.40;;
7843;SDS011;3967;48.702;9.326;2024-03-25T07:25:35;3.60;;;2.30;;
7843;SDS011;3967;48.702;9.326;2024-03-25T07:28:01;5.87;;;2.40;;
7843;SDS011;3967;48.702;9.326;2024-03-25T07:30:28;3.23;;;2.33;;
7843;SDS011;3967;48.702;9.326;2024-03-25T07:32:57;3.70;;;2.73;;
7843;SDS011;3967;48.702;9.326;2024-03-25T07:35:23;2.23;;;2.00;;
7843;SDS011;3967;48.702;9.326;2024-03-25T07:37:50;4.40;;;2.03;;
7843;SDS011;3967;48.702;9.326;2024-03-25T07:40:20;3.13;;;2.20;;
7843;SDS011;3967;48.702;9.326;2024-03-25T07:42:47;4.30;;;1.90;;
7843;SDS011;3967;48.702;9.326;2024-03-25T07:45:14;5.00;;;1.90;;
7843;SDS011;3967;48.702;9.326;2024-03-25T07:47:40;3.20;;;1.90;;
7843;SDS011;3967;48.702;9.326;2024-03-25T07:50:07;2.97;;;1.60;;
7843;SDS011;3967;48.702;9.326;2024-03-25T07:52:33;4.73;;;2.17;;
7843;SDS011;3967;48.702;9.326;2024-03-25T07:55:01;3.83;;;2.37;;
7843;SDS011;3967;48.702;9.326;2024-03-25T07:57:27;4.13;;;2.50;;
7843;SDS011;3967;48.702;9.326;2024-03-25T07:59:53;3.37;;;2.00;;
7843;SDS011;3967;48.702;9.326;2024-03-25T08:02:19;3.10;;;2.00;;
7843;SDS011;3967;48.702;9.326;2024-03-25T08:04:44;3.27;;;2.10;;
7843;SDS011;3967;48.702;9.326;2024-03-25T08:07:10;3.33;;;1.80;;
7843;SDS011;3967;48.702;9.326;2024-03-25T08:09:36;4.47;;;2.17;;
7843;SDS011;3967;48.702;9.326;2024-03-25T08:12:02;5.33;;;2.20;;
7843;SDS011;3967;48.702;9.326;2024-03-25T08:14:28;3.23;;;1.87;;
7843;SDS011;3967;48.702;9.326;2024-03-25T08:16:54;3.13;;;1.97;;
7843;SDS011;3967;48.702;9.326;2024-03-25T08:19:19;4.03;;;2.10;;
7843;SDS011;3967;48.702;9.326;2024-03-25T08:21:45;4.37;;;2.20;;
7843;SDS011;3967;48.702;9.326;2024-03-25T08:24:13;3.20;;;2.10;;
7843;SDS011;3967;48.702;9.326;2024-03-25T08:26:40;2.30;;;2.10;;
7843;SDS011;3967;48.702;9.326;2024-03-25T08:29:06;2.93;;;1.90;;
7843;SDS011;3967;48.702;9.326;2024-03-25T08:31:32;3.97;;;2.30;;
7843;SDS011;3967;48.702;9.326;2024-03-25T08:33:58;7.17;;;2.17;;
7843;SDS011;3967;48.702;9.326;2024-03-25T08:36:24;3.87;;;2.10;;
7843;SDS011;3967;48.702;9.326;2024-03-25T08:38:50;4.07;;;2.60;;
7843;SDS011;3967;48.702;9.326;2024-03-25T08:41:15;6.13;;;2.33;;
7843;SDS011;3967;48.702;9.326;2024-03-25T08:43:41;3.47;;;2.17;;
7843;SDS011;3967;48.702;9.326;2024-03-25T08:46:07;2.73;;;2.13;;
7843;SDS011;3967;48.702;9.326;2024-03-25T08:48:33;2.43;;;1.87;;
7843;SDS011;3967;48.702;9.326;2024-03-25T08:50:58;3.03;;;1.73;;
7843;SDS011;3967;48.702;9.326;2024-03-25T08:53:24;3.53;;;1.40;;
7843;SDS011;3967;48.702;9.326;2024-03-25T08:55:50;2.30;;;1.60;;
7843;SDS011;3967;48.702;9.326;2024-03-25T08:58:16;3.07;;;1.60;;
7843;SDS011;3967;48.702;9.326;2024-03-25T09:00:42;4.80;;;1.70;;
7843;SDS011;3967;48.702;9.326;2024-03-25T09:03:08;3.43;;;1.73;;
7843;SDS011;3967;48.702;9.326;2024-03-25T09:05:36;3.00;;;1.57;;
7843;SDS011;3967;48.702;9.326;2024-03-25T09:08:05;2.33;;;1.20;;
7843;SDS011;3967;48.702;9.326;2024-03-25T09:10:31;3.43;;;1.30;;
7843;SDS011;3967;48.702;9.326;2024-03-25T09:13:16;3.10;;;1.10;;
7843;SDS011;3967;48.702;9.326;2024-03-25T09:15:42;4.13;;;1.40;;
7843;SDS011;3967;48.702;9.326;2024-03-25T09:18:08;2.60;;;1.40;;
7843;SDS011;3967;48.702;9.326;2024-03-25T09:20:33;2.90;;;1.63;;
7843;SDS011;3967;48.702;9.326;2024-03-25T09:23:00;3.80;;;1.67;;
7843;SDS011;3967;48.702;9.326;2024-03-25T09:25:26;4.47;;;1.53;;
7843;SDS011;3967;48.702;9.326;2024-03-25T09:27:51;3.43;;;1.60;;
7843;SDS011;3967;48.702;9.326;2024-03-25T09:30:17;2.17;;;1.40;;
7843;SDS011;3967;48.702;9.326;2024-03-25T09:32:44;2.20;;;1.20;;
7843;SDS011;3967;48.702;9.326;2024-03-25T09:35:10;2.43;;;1.30;;
7843;SDS011;3967;48.702;9.326;2024-03-25T09:37:37;3.07;;;1.23;;
7843;SDS011;3967;48.702;9.326;2024-03-25T09:40:03;4.63;;;1.63;;
7843;SDS011;3967;48.702;9.326;2024-03-25T09:42:42;1.73;;;1.10;;
7843;SDS011;3967;48.702;9.326;2024-03-25T09:45:17;2.23;;;1.20;;
7843;SDS011;3967;48.702;9.326;2024-03-25T09:47:47;4.67;;;1.87;;
7843;SDS011;3967;48.702;9.326;2024-03-25T09:50:13;4.07;;;1.50;;
7843;SDS011;3967;48.702;9.326;2024-03-25T09:52:46;1.87;;;1.50;;
7843;SDS011;3967;48.702;9.326;2024-03-25T09:55:13;2.83;;;1.50;;
7843;SDS011;3967;48.702;9.326;2024-03-25T09:57:38;2.97;;;1.73;;
7843;SDS011;3967;48.702;9.326;2024-03-25T10:00:07;5.73;;;1.73;;
7843;SDS011;3967;48.702;9.326;2024-03-25T10:02:34;3.87;;;1.43;;
7843;SDS011;3967;48.702;9.326;2024-03-25T10:05:04;2.00;;;1.50;;
7843;SDS011;3967;48.702;9.326;2024-03-25T10:07:31;3.00;;;1.57;;
7843;SDS011;3967;48.702;9.326;2024-03-25T10:09:56;4.60;;;1.70;;
7843;SDS011;3967;48.702;9.326;2024-03-25T10:12:23;3.33;;;1.37;;
7843;SDS011;3967;48.702;9.326;2024-03-25T10:14:50;2.57;;;1.77;;
7843;SDS011;3967;48.702;9.326;2024-03-25T10:17:16;3.27;;;2.00;;
7843;SDS011;3967;48.702;9.326;2024-03-25T10:19:42;3.57;;;2.07;;
7843;SDS011;3967;48.702;9.326;2024-03-25T10:22:08;2.97;;;1.30;;
7843;SDS011;3967;48.702;9.326;2024-03-25T10:24:41;2.53;;;1.33;;
7843;SDS011;3967;48.702;9.326;2024-03-25T10:27:16;3.73;;;1.47;;
7843;SDS011;3967;48.702;9.326;2024-03-25T10:29:42;3.10;;;1.60;;
7843;SDS011;3967;48.702;9.326;2024-03-25T10:32:08;3.53;;;1.40;;
7843;SDS011;3967;48.702;9.326;2024-03-25T10:34:34;2.80;;;1.40;;
7843;SDS011;3967;48.702;9.326;2024-03-25T10:37:01;2.37;;;1.40;;
7843;SDS011;3967;48.702;9.326;2024-03-25T10:39:29;3.17;;;1.20;;
7843;SDS011;3967;48.702;9.326;2024-03-25T10:41:57;1.40;;;1.20;;
7843;SDS011;3967;48.702;9.326;2024-03-25T10:44:26;2.33;;;1.37;;
7843;SDS011;3967;48.702;9.326;2024-03-25T10:46:58;2.50;;;1.63;;
7843;SDS011;3967;48.702;9.326;2024-03-25T10:52:03;3.13;;;1.57;;
7843;SDS011;3967;48.702;9.326;2024-03-25T10:54:31;3.70;;;1.23;;
7843;SDS011;3967;48.702;9.326;2024-03-25T10:56:58;1.87;;;1.23;;
7843;SDS011;3967;48.702;9.326;2024-03-25T10:59:28;4.20;;;1.37;;
7843;SDS011;3967;48.702;9.326;2024-03-25T11:01:55;3.23;;;1.43;;
7843;SDS011;3967;48.702;9.326;2024-03-25T11:04:22;2.97;;;1.50;;
7843;SDS011;3967;48.702;9.326;2024-03-25T11:06:49;2.37;;;1.60;;
7843;SDS011;3967;48.702;9.326;2024-03-25T11:09:24;3.57;;;1.30;;
7843;SDS011;3967;48.702;9.326;2024-03-25T11:11:53;4.43;;;1.40;;
7843;SDS011;3967;48.702;9.326;2024-03-25T11:14:18;2.60;;;1.30;;
7843;SDS011;3967;48.702;9.326;2024-03-25T11:16:54;5.07;;;1.37;;
7843;SDS011;3967;48.702;9.326;2024-03-25T11:19:20;3.87;;;1.20;;
7843;SDS011;3967;48.702;9.326;2024-03-25T11:22:05;2.00;;;1.13;;
7843;SDS011;3967;48.702;9.326;2024-03-25T11:24:32;3.20;;;1.60;;
7843;SDS011;3967;48.702;9.326;2024-03-25T11:27:02;3.77;;;1.20;;
7843;SDS011;3967;48.702;9.326;2024-03-25T11:29:28;3.23;;;1.80;;
7843;SDS011;3967;48.702;9.326;2024-03-25T11:31:55;3.10;;;1.57;;
7843;SDS011;3967;48.702;9.326;2024-03-25T11:34:25;4.10;;;1.63;;
7843;SDS011;3967;48.702;9.326;2024-03-25T11:36:50;3.60;;;1.80;;
7843;SDS011;3967;48.702;9.326;2024-03-25T11:39:21;5.80;;;1.90;;
7843;SDS011;3967;48.702;9.326;2024-03-25T11:41:47;2.70;;;1.50;;
7843;SDS011;3967;48.702;9.326;2024-03-25T11:44:13;2.60;;;1.80;;
7843;SDS011;3967;48.702;9.326;2024-03-25T11:46:40;1.77;;;1.40;;
7843;SDS011;3967;48.702;9.326;2024-03-25T11:49:06;3.37;;;1.60;;
7843;SDS011;3967;48.702;9.326;2024-03-25T11:51:43;4.27;;;1.60;;
7843;SDS011;3967;48.702;9.326;2024-03-25T11:54:10;1.60;;;1.43;;
7843;SDS011;3967;48.702;9.326;2024-03-25T11:56:37;2.43;;;1.33;;
7843;SDS011;3967;48.702;9.326;2024-03-25T11:59:03;2.47;;;1.90;;
7843;SDS011;3967;48.702;9.326;2024-03-25T12:01:29;2.43;;;1.67;;
7843;SDS011;3967;48.702;9.326;2024-03-25T12:03:56;2.90;;;1.60;;
7843;SDS011;3967;48.702;9.326;2024-03-25T12:06:22;2.40;;;1.90;;
7843;SDS011;3967;48.702;9.326;2024-03-25T12:08:48;2.23;;;1.60;;
7843;SDS011;3967;48.702;9.326;2024-03-25T12:11:33;4.40;;;1.60;;
7843;SDS011;3967;48.702;9.326;2024-03-25T12:13:59;2.67;;;1.80;;
7843;SDS011;3967;48.702;9.326;2024-03-25T12:16:25;3.90;;;1.57;;
7843;SDS011;3967;48.702;9.326;2024-03-25T12:18:51;2.23;;;1.30;;
7843;SDS011;3967;48.702;9.326;2024-03-25T12:21:20;3.63;;;1.40;;
7843;SDS011;3967;48.702;9.326;2024-03-25T12:23:47;2.57;;;1.30;;
7843;SDS011;3967;48.702;9.326;2024-03-25T12:26:13;1.50;;;1.40;;
7843;SDS011;3967;48.702;9.326;2024-03-25T12:28:39;3.23;;;1.33;;
7843;SDS011;3967;48.702;9.326;2024-03-25T12:31:08;3.27;;;1.50;;
7843;SDS011;3967;48.702;9.326;2024-03-25T12:33:49;1.50;;;0.97;;
7843;SDS011;3967;48.702;9.326;2024-03-25T12:36:14;2.43;;;1.43;;
7843;SDS011;3967;48.702;9.326;2024-03-25T12:38:40;2.50;;;1.40;;
7843;SDS011;3967;48.702;9.326;2024-03-25T12:41:10;2.40;;;1.53;;
7843;SDS011;3967;48.702;9.326;2024-03-25T12:43:43;3.10;;;1.30;;
7843;SDS011;3967;48.702;9.326;2024-03-25T12:46:09;3.43;;;1.83;;
7843;SDS011;3967;48.702;9.326;2024-03-25T12:48:36;2.57;;;1.10;;
7843;SDS011;3967;48.702;9.326;2024-03-25T12:51:03;1.50;;;1.20;;
7843;SDS011;3967;48.702;9.326;2024-03-25T12:53:30;4.97;;;1.47;;
7843;SDS011;3967;48.702;9.326;2024-03-25T12:55:56;1.43;;;1.33;;
7843;SDS011;3967;48.702;9.326;2024-03-25T12:58:22;9.90;;;4.23;;
7843;SDS011;3967;48.702;9.326;2024-03-25T13:00:48;1.87;;;1.27;;
7843;SDS011;3967;48.702;9.326;2024-03-25T13:03:14;4.03;;;1.60;;
7843;SDS011;3967;48.702;9.326;2024-03-25T13:05:40;2.80;;;1.33;;
7843;SDS011;3967;48.702;9.326;2024-03-25T13:08:08;2.57;;;1.40;;
7843;SDS011;3967;48.702;9.326;2024-03-25T13:10:34;2.00;;;1.70;;
7843;SDS011;3967;48.702;9.326;2024-03-25T13:13:01;2.40;;;1.53;;
7843;SDS011;3967;48.702;9.326;2024-03-25T13:15:27;2.60;;;1.03;;
7843;SDS011;3967;48.702;9.326;2024-03-25T13:17:53;2.97;;;1.20;;
7843;SDS011;3967;48.702;9.326;2024-03-25T13:20:19;4.77;;;1.60;;
7843;SDS011;3967;48.702;9.326;2024-03-25T13:22:45;2.67;;;1.20;;
7843;SDS011;3967;48.702;9.326;2024-03-25T13:25:12;2.87;;;1.47;;
7843;SDS011;3967;48.702;9.326;2024-03-25T13:27:38;1.97;;;1.20;;
7843;SDS011;3967;48.702;9.326;2024-03-25T13:30:05;2.27;;;1.10;;
7843;SDS011;3967;48.702;9.326;2024-03-25T13:32:31;1.87;;;1.10;;
7843;SDS011;3967;48.702;9.326;2024-03-25T13:34:57;1.40;;;1.10;;
7843;SDS011;3967;48.702;9.326;2024-03-25T13:37:23;2.80;;;1.20;;
7843;SDS011;3967;48.702;9.326;2024-03-25T13:39:50;1.23;;;1.10;;
7843;SDS011;3967;48.702;9.326;2024-03-25T13:42:16;1.93;;;1.30;;
7843;SDS011;3967;48.702;9.326;2024-03-25T13:44:42;5.67;;;1.40;;
7843;SDS011;3967;48.702;9.326;2024-03-25T13:47:08;2.87;;;1.47;;
7843;SDS011;3967;48.702;9.326;2024-03-25T13:49:34;3.17;;;1.53;;
7843;SDS011;3967;48.702;9.326;2024-03-25T13:52:00;1.17;;;1.07;;
7843;SDS011;3967;48.702;9.326;2024-03-25T13:54:29;2.03;;;1.30;;
7843;SDS011;3967;48.702;9.326;2024-03-25T13:56:58;2.83;;;1.47;;
7843;SDS011;3967;48.702;9.326;2024-03-25T13:59:24;1.30;;;1.20;;
7843;SDS011;3967;48.702;9.326;2024-03-25T14:01:50;2.47;;;1.40;;
7843;SDS011;3967;48.702;9.326;2024-03-25T14:04:17;3.77;;;1.20;;
7843;SDS011;3967;48.702;9.326;2024-03-25T14:06:43;1.33;;;1.17;;
7843;SDS011;3967;48.702;9.326;2024-03-25T14:09:22;1.83;;;1.30;;
7843;SDS011;3967;48.702;9.326;2024-03-25T14:11:51;1.30;;;1.00;;
7843;SDS011;3967;48.702;9.326;2024-03-25T14:14:17;1.63;;;1.10;;
7843;SDS011;3967;48.702;9.326;2024-03-25T14:16:43;2.23;;;1.30;;
7843;SDS011;3967;48.702;9.326;2024-03-25T14:19:09;2.47;;;1.20;;
7843;SDS011;3967;48.702;9.326;2024-03-25T14:21:35;2.37;;;0.93;;
7843;SDS011;3967;48.702;9.326;2024-03-25T14:24:01;1.13;;;1.03;;
7843;SDS011;3967;48.702;9.326;2024-03-25T14:26:27;1.77;;;1.00;;
7843;SDS011;3967;48.702;9.326;2024-03-25T14:28:53;1.77;;;1.23;;
7843;SDS011;3967;48.702;9.326;2024-03-25T14:31:19;1.87;;;1.00;;
7843;SDS011;3967;48.702;9.326;2024-03-25T14:33:45;2.53;;;1.20;;
7843;SDS011;3967;48.702;9.326;2024-03-25T14:36:10;1.60;;;0.90;;
7843;SDS011;3967;48.702;9.326;2024-03-25T14:38:36;2.20;;;1.60;;
7843;SDS011;3967;48.702;9.326;2024-03-25T14:41:04;2.43;;;1.10;;
7843;SDS011;3967;48.702;9.326;2024-03-25T14:43:30;2.67;;;1.20;;
7843;SDS011;3967;48.702;9.326;2024-03-25T14:45:56;2.67;;;1.60;;
7843;SDS011;3967;48.702;9.326;2024-03-25T14:48:22;1.63;;;1.40;;
7843;SDS011;3967;48.702;9.326;2024-03-25T14:50:48;3.10;;;1.30;;
7843;SDS011;3967;48.702;9.326;2024-03-25T14:53:13;1.37;;;1.00;;
7843;SDS011;3967;48.702;9.326;2024-03-25T14:55:39;1.63;;;1.10;;
7843;SDS011;3967;48.702;9.326;2024-03-25T14:58:07;2.30;;;1.50;;
7843;SDS011;3967;48.702;9.326;2024-03-25T15:00:33;2.97;;;1.10;;
7843;SDS011;3967;48.702;9.326;2024-03-25T15:02:58;1.87;;;1.20;;
7843;SDS011;3967;48.702;9.326;2024-03-25T15:05:24;2.20;;;1.20;;
7843;SDS011;3967;48.702;9.326;2024-03-25T15:07:50;1.37;;;1.20;;
7843;SDS011;3967;48.702;9.326;2024-03-25T15:10:16;1.47;;;1.13;;
7843;SDS011;3967;48.702;9.326;2024-03-25T15:12:41;1.60;;;1.00;;
7843;SDS011;3967;48.702;9.326;2024-03-25T15:15:07;2.13;;;0.90;;